This is the latest recevied weather packets stored in our database for station/object DC5DM-13. If no packets are shown the sender has not sent any weather packets the latest 10 day(s).
| Time | Temp. | Humidity | Pressure | Rain* | Wind** | Luminosity | Snow |
|---|---|---|---|---|---|---|---|
| 1777708554 | 19.44° C | 44% | 1021.7 hPa | 0 mm | - | - | - |
| 1777707924 | 19.44° C | 44% | 1021.7 hPa | 0 mm | - | - | - |
| 1777707355 | 18.33° C | 45% | 1021.9 hPa | 0 mm | - | - | - |
| 1777706725 | 17.78° C | 49% | 1022 hPa | 0 mm | - | - | - |
| 1777706151 | 17.78° C | 47% | 1021.9 hPa | 0 mm | - | - | - |
| 1777705574 | 17.22° C | 48% | 1021.9 hPa | 0 mm | - | - | - |
| 1777704941 | 16.67° C | 50% | 1022 hPa | 0 mm | - | - | - |
| 1777704372 | 16.11° C | 52% | 1022 hPa | 0 mm | - | - | - |
| 1777703740 | 15.56° C | 54% | 1021.9 hPa | 0 mm | - | - | - |
| 1777703172 | 15° C | 59% | 1021.7 hPa | 0 mm | - | - | - |
| 1777702541 | 13.33° C | 66% | 1021.9 hPa | 0 mm | - | - | - |
| 1777701972 | 12.22° C | 70% | 1021.7 hPa | 0 mm | - | - | - |
| 1777701341 | 10.56° C | 75% | 1022 hPa | 0 mm | - | - | - |
| 1777700772 | 7.78° C | 83% | 1022 hPa | 0 mm | - | - | - |
| 1777700141 | 7.22° C | 85% | 1022 hPa | 0 mm | - | - | - |
| 1777699572 | 6.67° C | 88% | 1022 hPa | 0 mm | - | - | - |
| 1777698940 | 6.11° C | 88% | 1022 hPa | 0 mm | - | - | - |
| 1777698372 | 5.56° C | 89% | 1022.1 hPa | 0 mm | - | - | - |
| 1777697740 | 5.56° C | 90% | 1022.1 hPa | 0 mm | - | - | - |
| 1777697171 | 5° C | 90% | 1022.1 hPa | 0 mm | - | - | - |
| 1777696541 | 5° C | 91% | 1022.1 hPa | 0 mm | - | - | - |
| 1777694725 | 5.56° C | 90% | 1022.1 hPa | 0 mm | - | - | - |
| 1777694156 | 5° C | 91% | 1022 hPa | 0 mm | - | - | - |
| 1777693526 | 5° C | 90% | 1022.1 hPa | 0 mm | - | - | - |
| 1777692956 | 5° C | 90% | 1022.1 hPa | 0 mm | - | - | - |
* Rain latest hour (hover to see other rain measurements)
** Current wind speed in m/s (hover to see current wind gust speed)